createdAt,value
2023-04-16T00:02:57.340Z,89.10
2023-04-16T00:05:59.293Z,89.10
2023-04-16T00:09:01.108Z,88.80
2023-04-16T00:12:03.339Z,88.90
2023-04-16T00:15:05.518Z,88.70
2023-04-16T00:18:07.227Z,88.90
2023-04-16T00:21:08.861Z,89.10
2023-04-16T00:24:10.589Z,89.20
2023-04-16T00:27:12.209Z,89.10
2023-04-16T00:30:13.795Z,88.50
2023-04-16T00:33:16.938Z,88.80
2023-04-16T00:36:18.584Z,89.10
2023-04-16T00:39:20.260Z,89.10
2023-04-16T00:42:21.856Z,88.80
2023-04-16T00:45:23.671Z,88.90
2023-04-16T00:48:28.076Z,89.10
2023-04-16T00:51:29.949Z,89.00
2023-04-16T00:54:32.260Z,89.00
2023-04-16T00:57:33.827Z,89.20
2023-04-16T01:03:48.138Z,89.10
2023-04-16T01:06:49.810Z,89.20
2023-04-16T01:09:51.391Z,88.90
2023-04-16T01:12:52.918Z,89.00
2023-04-16T01:15:54.601Z,89.10
2023-04-16T01:18:56.532Z,89.10
2023-04-16T01:21:59.164Z,89.10
2023-04-16T01:25:00.853Z,89.10
2023-04-16T01:28:02.446Z,88.90
2023-04-16T01:31:04.095Z,89.20
2023-04-16T01:34:06.013Z,89.00
2023-04-16T01:37:07.898Z,89.20
2023-04-16T01:40:10.180Z,89.20
2023-04-16T01:43:11.758Z,88.90
2023-04-16T01:46:26.987Z,88.80
2023-04-16T01:49:29.418Z,88.80
2023-04-16T01:52:31.084Z,88.90
2023-04-16T01:55:33.977Z,89.20
2023-04-16T01:58:35.745Z,89.10
2023-04-16T02:01:37.345Z,89.20
2023-04-16T02:04:45.020Z,89.50
2023-04-16T02:07:46.603Z,89.20
2023-04-16T02:10:50.027Z,89.20
2023-04-16T02:13:51.633Z,89.50
2023-04-16T02:16:53.504Z,89.70
2023-04-16T02:19:55.417Z,89.70
2023-04-16T02:22:56.986Z,89.60
2023-04-16T02:25:58.628Z,89.80
2023-04-16T02:29:00.339Z,89.60
2023-04-16T02:32:01.940Z,89.40
2023-04-16T02:35:04.044Z,89.30
2023-04-16T02:38:06.297Z,89.40
2023-04-16T02:41:07.934Z,89.60
2023-04-16T02:44:09.497Z,89.70
2023-04-16T02:47:11.085Z,89.90
2023-04-16T02:50:12.812Z,89.90
2023-04-16T02:53:14.375Z,89.90
2023-04-16T02:56:16.237Z,89.70
2023-04-16T02:59:17.812Z,89.80
2023-04-16T03:02:19.568Z,90.00
2023-04-16T03:05:21.523Z,90.10
2023-04-16T03:08:23.253Z,90.00
2023-04-16T03:11:24.914Z,90.10
2023-04-16T03:14:26.464Z,90.30
2023-04-16T03:17:28.114Z,89.90
2023-04-16T03:20:29.792Z,89.90
2023-04-16T03:23:31.386Z,90.00
2023-04-16T03:26:32.984Z,89.80
2023-04-16T03:29:38.438Z,89.80
2023-04-16T03:32:40.810Z,89.90
2023-04-16T03:35:42.373Z,89.80
2023-04-16T03:38:44.128Z,89.90
2023-04-16T03:41:46.141Z,90.10
2023-04-16T03:44:47.844Z,90.30
2023-04-16T03:47:52.607Z,90.20
2023-04-16T03:50:54.367Z,89.90
2023-04-16T03:53:56.036Z,90.20
2023-04-16T03:56:57.703Z,90.20
2023-04-16T03:59:59.328Z,90.10
2023-04-16T04:03:01.710Z,90.00
2023-04-16T04:06:09.916Z,90.10
2023-04-16T04:09:25.370Z,89.90
2023-04-16T04:12:27.170Z,89.60
2023-04-16T04:15:28.807Z,89.70
2023-04-16T04:18:30.525Z,89.80
2023-04-16T04:21:32.514Z,89.70
2023-04-16T04:24:34.092Z,89.40
2023-04-16T04:27:36.063Z,89.20
2023-04-16T04:30:37.628Z,89.20
2023-04-16T04:33:39.371Z,89.10
2023-04-16T04:36:41.036Z,89.40
2023-04-16T04:39:42.617Z,89.20
2023-04-16T04:42:44.279Z,89.30
2023-04-16T04:45:46.265Z,89.60
2023-04-16T04:48:47.945Z,89.70
2023-04-16T04:51:49.571Z,89.50
2023-04-16T04:54:52.513Z,89.40
2023-04-16T04:57:54.089Z,89.20
2023-04-16T05:00:55.874Z,89.20
2023-04-16T05:03:57.585Z,88.90
2023-04-16T05:06:59.313Z,89.00
2023-04-16T05:10:01.130Z,89.00
2023-04-16T05:13:02.809Z,88.80
2023-04-16T05:16:04.780Z,89.00
2023-04-16T05:19:06.616Z,89.00
2023-04-16T05:22:08.338Z,88.90
2023-04-16T05:25:10.297Z,89.00
2023-04-16T05:28:12.011Z,88.40
2023-04-16T05:31:13.679Z,87.90
2023-04-16T05:34:15.399Z,87.40
2023-04-16T05:37:16.976Z,87.20
2023-04-16T05:40:18.634Z,87.40
2023-04-16T05:43:20.220Z,87.50
2023-04-16T05:46:21.857Z,87.60
2023-04-16T05:49:23.503Z,87.60
2023-04-16T05:52:25.173Z,87.70
2023-04-16T05:55:26.788Z,87.50
2023-04-16T05:58:28.382Z,87.70
2023-04-16T06:01:30.140Z,87.80
2023-04-16T06:04:31.795Z,87.90
2023-04-16T06:07:33.465Z,88.10
2023-04-16T06:10:35.248Z,88.00
2023-04-16T06:13:37.368Z,88.10
2023-04-16T06:16:39.896Z,88.20
2023-04-16T06:19:41.566Z,87.90
2023-04-16T06:22:43.194Z,87.70
2023-04-16T06:25:44.861Z,89.30
2023-04-16T06:28:46.420Z,88.10
2023-04-16T06:31:48.527Z,88.30
2023-04-16T06:34:50.421Z,88.20
2023-04-16T06:37:52.139Z,88.30
2023-04-16T06:40:53.760Z,87.70
2023-04-16T06:43:55.448Z,87.50
2023-04-16T06:46:57.111Z,86.60
2023-04-16T06:49:58.798Z,87.00
2023-04-16T06:53:00.637Z,86.40
2023-04-16T06:56:02.260Z,86.00
2023-04-16T06:59:04.505Z,86.00
2023-04-16T07:02:07.592Z,85.80
2023-04-16T07:05:09.372Z,85.30
2023-04-16T07:08:11.165Z,85.80
2023-04-16T07:11:12.909Z,85.40
2023-04-16T07:14:14.588Z,85.70
2023-04-16T07:17:16.208Z,85.90
2023-04-16T07:20:17.941Z,85.70
2023-04-16T07:23:19.504Z,86.00
2023-04-16T07:26:21.075Z,86.80
2023-04-16T07:29:22.653Z,88.10
2023-04-16T07:32:24.469Z,88.70
2023-04-16T07:35:26.134Z,90.40
2023-04-16T07:38:27.780Z,90.70
2023-04-16T07:41:32.436Z,91.60
2023-04-16T07:44:34.100Z,92.10
2023-04-16T07:47:35.994Z,92.80
2023-04-16T07:50:37.759Z,93.30
2023-04-16T07:53:39.351Z,93.70
2023-04-16T07:56:41.086Z,93.40
2023-04-16T07:59:42.652Z,93.80
2023-04-16T08:02:44.695Z,93.70
2023-04-16T08:05:46.524Z,94.00
2023-04-16T08:08:48.104Z,94.10
2023-04-16T08:11:51.067Z,93.70
2023-04-16T08:14:52.694Z,94.00
2023-04-16T08:17:54.270Z,94.00
2023-04-16T08:20:56.312Z,94.10
2023-04-16T08:23:58.171Z,93.90
2023-04-16T08:27:08.102Z,94.10
2023-04-16T08:30:19.419Z,94.00
2023-04-16T08:33:21.613Z,94.10
2023-04-16T08:36:23.372Z,94.20
2023-04-16T08:39:24.922Z,94.30
2023-04-16T08:42:44.149Z,94.50
2023-04-16T08:45:48.007Z,94.00
2023-04-16T08:48:53.295Z,94.20
2023-04-16T08:51:56.138Z,93.90
2023-04-16T08:55:05.955Z,93.90
2023-04-16T08:58:13.333Z,94.10
2023-04-16T09:01:17.173Z,93.70
2023-04-16T09:04:19.843Z,93.20
2023-04-16T09:07:22.465Z,93.20
2023-04-16T09:10:26.552Z,92.80
2023-04-16T09:13:28.820Z,92.60
2023-04-16T09:16:34.093Z,92.60
2023-04-16T09:19:35.912Z,92.30
2023-04-16T09:22:38.340Z,92.20
2023-04-16T09:25:40.063Z,91.70
2023-04-16T09:28:43.983Z,91.70
2023-04-16T09:32:03.173Z,91.80
2023-04-16T09:35:05.260Z,91.30
2023-04-16T09:38:06.817Z,90.70
2023-04-16T09:41:08.865Z,91.00
2023-04-16T09:44:10.606Z,90.40
2023-04-16T09:47:12.649Z,90.20
2023-04-16T09:50:19.189Z,90.10
2023-04-16T09:53:27.907Z,89.90
2023-04-16T09:56:30.347Z,89.60
2023-04-16T09:59:34.029Z,89.30
2023-04-16T10:02:38.932Z,88.80
2023-04-16T10:05:41.438Z,88.90
2023-04-16T10:08:50.873Z,88.80
2023-04-16T10:11:52.511Z,88.20
2023-04-16T10:14:54.103Z,87.80
2023-04-16T10:17:57.293Z,86.90
2023-04-16T10:20:59.379Z,87.00
2023-04-16T10:24:01.499Z,86.90
2023-04-16T10:27:03.277Z,87.40
2023-04-16T10:30:07.217Z,87.00
2023-04-16T10:33:09.771Z,87.20
2023-04-16T10:36:23.236Z,86.40
2023-04-16T10:39:28.156Z,85.90
2023-04-16T10:42:31.259Z,86.00
2023-04-16T10:45:37.732Z,86.10
2023-04-16T10:48:49.132Z,85.80
2023-04-16T10:51:59.689Z,84.60
2023-04-16T10:55:01.309Z,84.90
2023-04-16T10:58:02.897Z,83.20
2023-04-16T11:01:13.236Z,83.00
2023-04-16T11:04:21.096Z,83.70
2023-04-16T11:07:33.780Z,83.80
2023-04-16T11:10:39.310Z,83.80
2023-04-16T11:13:45.572Z,84.40
2023-04-16T11:16:47.180Z,84.30
2023-04-16T11:19:49.337Z,84.30
2023-04-16T11:22:55.511Z,84.50
2023-04-16T11:25:58.567Z,84.60
2023-04-16T11:29:00.938Z,84.90
2023-04-16T11:32:02.620Z,84.50
2023-04-16T11:35:24.531Z,84.60
2023-04-16T11:38:40.949Z,84.80
2023-04-16T11:41:50.530Z,85.70
2023-04-16T11:44:56.633Z,85.70
2023-04-16T11:47:58.654Z,84.60
2023-04-16T11:51:00.348Z,84.40
2023-04-16T11:54:02.292Z,83.60
2023-04-16T11:57:06.817Z,83.80
2023-04-16T12:00:12.840Z,84.10
2023-04-16T12:03:14.667Z,83.40
2023-04-16T12:06:16.398Z,84.10
2023-04-16T12:09:26.086Z,84.00
2023-04-16T12:12:30.828Z,84.20
2023-04-16T12:15:50.847Z,83.50
2023-04-16T12:19:01.172Z,84.00
2023-04-16T12:22:02.966Z,83.20
2023-04-16T12:25:12.182Z,83.70
2023-04-16T12:28:13.800Z,83.40
2023-04-16T12:31:15.713Z,82.20
2023-04-16T12:34:18.973Z,82.90
2023-04-16T12:37:21.082Z,82.60
2023-04-16T12:40:22.693Z,82.20
2023-04-16T12:43:25.141Z,82.60
2023-04-16T12:46:26.818Z,81.90
2023-04-16T12:49:28.433Z,81.00
2023-04-16T12:52:30.072Z,80.90
2023-04-16T12:55:31.685Z,80.50
2023-04-16T12:58:34.357Z,80.30
2023-04-16T13:01:37.077Z,81.50
2023-04-16T13:04:38.874Z,81.40
2023-04-16T13:07:41.555Z,81.80
2023-04-16T13:10:43.225Z,82.20
2023-04-16T13:13:45.279Z,82.90
2023-04-16T13:16:47.045Z,83.60
2023-04-16T13:19:48.909Z,82.90
2023-04-16T13:22:50.828Z,83.10
2023-04-16T13:25:52.838Z,83.80
2023-04-16T13:28:54.572Z,83.60
2023-04-16T13:31:56.346Z,84.00
2023-04-16T13:34:57.897Z,84.00
2023-04-16T13:37:59.522Z,84.20
2023-04-16T13:41:01.172Z,83.10
2023-04-16T13:44:02.803Z,84.50
2023-04-16T13:47:04.466Z,85.60
2023-04-16T13:50:06.362Z,84.60
2023-04-16T13:53:07.965Z,83.30
2023-04-16T13:56:10.766Z,82.00
2023-04-16T13:59:12.548Z,82.40
2023-04-16T14:02:14.676Z,82.20
2023-04-16T14:05:16.471Z,81.90
2023-04-16T14:08:21.133Z,80.40
2023-04-16T14:11:23.490Z,81.80
2023-04-16T14:14:25.885Z,82.10
2023-04-16T14:17:27.490Z,82.50
2023-04-16T14:20:29.160Z,81.20
2023-04-16T14:23:31.687Z,80.70
2023-04-16T14:26:33.260Z,80.80
2023-04-16T14:29:36.304Z,79.30
2023-04-16T14:32:38.048Z,79.60
2023-04-16T14:35:39.705Z,78.30
2023-04-16T14:38:43.147Z,77.70
2023-04-16T14:41:44.714Z,77.40
2023-04-16T14:44:46.284Z,77.50
2023-04-16T14:47:48.228Z,77.30
2023-04-16T14:50:49.851Z,76.60
2023-04-16T14:53:51.544Z,77.80
2023-04-16T14:56:53.316Z,77.70
2023-04-16T14:59:55.022Z,78.10
2023-04-16T15:02:57.479Z,78.60
2023-04-16T15:05:59.404Z,80.00
2023-04-16T15:09:01.265Z,79.50
2023-04-16T15:12:02.971Z,80.20
2023-04-16T15:15:06.782Z,81.00
2023-04-16T15:18:08.692Z,80.90
2023-04-16T15:21:12.437Z,81.30
2023-04-16T15:24:14.453Z,81.30
2023-04-16T15:27:17.599Z,81.60
2023-04-16T15:30:21.340Z,81.70
2023-04-16T15:33:23.313Z,81.80
2023-04-16T15:36:24.954Z,81.80
2023-04-16T15:39:26.598Z,81.80
2023-04-16T15:42:28.399Z,82.20
2023-04-16T15:45:30.052Z,82.60
2023-04-16T15:48:31.688Z,82.70
2023-04-16T15:51:33.348Z,83.00
2023-04-16T15:54:35.556Z,82.70
2023-04-16T15:57:37.281Z,81.40
2023-04-16T16:00:39.167Z,81.60
2023-04-16T16:03:41.024Z,80.80
2023-04-16T16:06:43.035Z,79.80
2023-04-16T16:09:44.842Z,79.90
2023-04-16T16:12:46.808Z,80.50
2023-04-16T16:15:48.517Z,79.40
2023-04-16T16:18:50.219Z,79.40
2023-04-16T16:21:51.882Z,79.20
2023-04-16T16:24:55.828Z,79.00
2023-04-16T16:27:58.879Z,79.80
2023-04-16T16:31:01.518Z,79.20
2023-04-16T16:34:03.169Z,79.70
2023-04-16T16:37:05.826Z,80.00
2023-04-16T16:40:07.988Z,80.50
2023-04-16T16:43:09.727Z,81.00
2023-04-16T16:46:11.454Z,80.50
2023-04-16T16:49:14.126Z,81.00
2023-04-16T16:52:15.903Z,81.10
2023-04-16T16:55:18.769Z,80.90
2023-04-16T16:58:20.783Z,81.40
2023-04-16T17:01:22.416Z,81.80
2023-04-16T17:04:24.318Z,81.80
2023-04-16T17:07:26.253Z,82.10
2023-04-16T17:10:28.552Z,82.10
2023-04-16T17:13:32.413Z,82.30
2023-04-16T17:16:34.026Z,82.90
2023-04-16T17:19:35.694Z,81.80
2023-04-16T17:22:38.512Z,82.20
2023-04-16T17:25:40.077Z,80.80
2023-04-16T17:28:41.702Z,80.50
2023-04-16T17:31:43.293Z,80.60
2023-04-16T17:34:44.890Z,81.40
2023-04-16T17:37:46.457Z,82.60
2023-04-16T17:40:48.014Z,83.50
2023-04-16T17:43:50.622Z,84.80
2023-04-16T17:46:52.300Z,85.50
2023-04-16T17:49:55.259Z,85.90
2023-04-16T17:53:02.977Z,86.00
2023-04-16T17:56:04.778Z,85.90
2023-04-16T17:59:06.497Z,86.40
2023-04-16T18:02:08.153Z,86.90
2023-04-16T18:05:09.938Z,86.70
2023-04-16T18:08:11.573Z,87.40
2023-04-16T18:11:13.304Z,87.70
2023-04-16T18:14:19.699Z,88.30
2023-04-16T18:17:24.373Z,88.30
2023-04-16T18:20:27.201Z,88.20
2023-04-16T18:23:28.845Z,88.20
2023-04-16T18:26:31.203Z,88.40
2023-04-16T18:29:34.856Z,88.40
2023-04-16T18:32:37.528Z,88.30
2023-04-16T18:35:40.455Z,88.60
2023-04-16T18:38:56.941Z,89.00
2023-04-16T18:42:02.050Z,88.70
2023-04-16T18:45:04.103Z,89.50
2023-04-16T18:48:06.006Z,89.00
2023-04-16T18:51:07.937Z,89.60
2023-04-16T18:54:09.603Z,90.40
2023-04-16T18:57:11.236Z,90.20
2023-04-16T19:00:13.341Z,90.30
2023-04-16T19:03:15.337Z,90.30
2023-04-16T19:06:17.157Z,90.30
2023-04-16T19:09:19.833Z,90.40
2023-04-16T19:12:21.549Z,90.60
2023-04-16T19:15:23.206Z,90.40
2023-04-16T19:18:25.017Z,90.50
2023-04-16T19:21:28.514Z,90.80
2023-04-16T19:24:31.303Z,90.40
2023-04-16T19:27:34.816Z,91.00
2023-04-16T19:30:36.661Z,90.80
2023-04-16T19:33:38.267Z,90.70
2023-04-16T19:36:40.449Z,90.40
2023-04-16T19:39:42.485Z,90.50
2023-04-16T19:42:45.504Z,90.80
2023-04-16T19:45:52.375Z,90.90
2023-04-16T19:48:54.146Z,91.00
2023-04-16T19:51:56.001Z,91.00
2023-04-16T19:54:57.751Z,91.40
2023-04-16T19:58:05.538Z,91.70
2023-04-16T20:01:11.095Z,91.90
2023-04-16T20:04:12.857Z,92.50
2023-04-16T20:07:14.444Z,92.40
2023-04-16T20:10:16.321Z,92.50
2023-04-16T20:13:18.858Z,92.70
2023-04-16T20:16:23.397Z,92.80
2023-04-16T20:19:26.065Z,92.70
2023-04-16T20:22:27.929Z,92.60
2023-04-16T20:25:29.632Z,93.00
2023-04-16T20:28:31.263Z,93.20
2023-04-16T20:31:32.988Z,93.10
2023-04-16T20:34:34.633Z,93.60
2023-04-16T20:37:41.778Z,93.70
2023-04-16T20:40:44.997Z,94.10
2023-04-16T20:43:49.947Z,94.00
2023-04-16T20:46:54.756Z,94.20
2023-04-16T20:49:56.465Z,94.20
2023-04-16T20:52:58.101Z,94.40
2023-04-16T20:56:00.541Z,94.60
2023-04-16T20:59:02.205Z,94.70
2023-04-16T21:02:03.938Z,94.50
2023-04-16T21:05:16.137Z,94.60
2023-04-16T21:08:18.902Z,94.30
2023-04-16T21:11:20.678Z,94.10
2023-04-16T21:14:22.273Z,94.00
2023-04-16T21:17:23.917Z,94.00
2023-04-16T21:20:25.550Z,94.10
2023-04-16T21:23:27.213Z,93.80
2023-04-16T21:26:28.853Z,93.60
2023-04-16T21:29:30.488Z,93.70
2023-04-16T21:32:32.256Z,93.50
2023-04-16T21:35:33.958Z,93.40
2023-04-16T21:38:35.733Z,93.40
2023-04-16T21:41:37.328Z,93.60
2023-04-16T21:44:39.001Z,93.40
2023-04-16T21:47:40.782Z,93.20
2023-04-16T21:50:42.389Z,93.20
2023-04-16T21:53:43.992Z,93.30
2023-04-16T21:56:46.162Z,93.20
2023-04-16T21:59:47.690Z,93.10
2023-04-16T22:02:49.518Z,93.10
2023-04-16T22:05:51.557Z,93.10
2023-04-16T22:08:53.392Z,93.30
2023-04-16T22:11:57.658Z,93.30
2023-04-16T22:15:02.753Z,93.50
2023-04-16T22:18:05.086Z,93.40
2023-04-16T22:21:07.108Z,93.60
2023-04-16T22:24:08.869Z,93.80
2023-04-16T22:27:10.440Z,93.90
2023-04-16T22:30:13.092Z,93.90
2023-04-16T22:33:14.916Z,94.00
2023-04-16T22:36:16.551Z,94.00
2023-04-16T22:39:18.287Z,94.10
2023-04-16T22:42:19.866Z,94.20
2023-04-16T22:45:22.494Z,94.40
2023-04-16T22:48:24.064Z,94.40
2023-04-16T22:51:25.641Z,94.60
2023-04-16T22:54:31.217Z,94.60
2023-04-16T22:57:32.816Z,94.40
2023-04-16T23:00:34.420Z,94.20
2023-04-16T23:03:36.203Z,94.30
2023-04-16T23:06:37.888Z,94.40
2023-04-16T23:09:39.457Z,94.40
2023-04-16T23:12:41.121Z,94.10
2023-04-16T23:15:43.651Z,94.20
2023-04-16T23:18:45.253Z,94.00
2023-04-16T23:21:46.831Z,94.30
2023-04-16T23:24:48.389Z,94.10
2023-04-16T23:27:50.094Z,93.90
2023-04-16T23:30:52.783Z,93.90
2023-04-16T23:33:54.497Z,94.10
2023-04-16T23:36:56.083Z,94.00
2023-04-16T23:39:57.708Z,94.20
2023-04-16T23:42:59.361Z,94.40
2023-04-16T23:46:02.295Z,94.40
2023-04-16T23:49:04.469Z,94.40
2023-04-16T23:52:06.130Z,94.50
2023-04-16T23:55:08.150Z,94.40
2023-04-16T23:58:09.740Z,94.40
